Terminal Aerodrome Forecast
Issued by NWS Indianapolis, IN

Home | Current Version | Previous Version | Text Only | Print | Product List | Glossary On
Versions: 1 2 3 4 5 6 7 8 9 10 11 12 13 14 15 16 17 18 19 20 21 22 23 24 25 26 27 28 29 30 31 32 33 34 35 36
457
FTUS43 KIND 211720
TAFIND
TAF
KIND 211720Z 2118/2224 19010KT P6SM BKN200
     FM220500 VRB03KT 4SM BR OVC120
     FM220800 VRB03KT 1SM BR VCSH BKN035
     FM221300 08005KT 1SM BR VCSH OVC015
     FM221700 07007KT 3SM -SHRA BR OVC025
     FM222100 06006KT 1 1/2SM -SHRA BR OVC010=

USA.gov is the U.S. government's official web portal to all federal, state and local government web resources and services.